createdAt,value
2023-08-20T00:03:33.559Z,26.30
2023-08-20T00:08:37.155Z,26.20
2023-08-20T00:13:40.333Z,26.10
2023-08-20T00:18:45.773Z,26.00
2023-08-20T00:23:49.465Z,25.80
2023-08-20T00:28:52.572Z,25.80
2023-08-20T00:34:06.643Z,25.80
2023-08-20T00:39:10.906Z,25.90
2023-08-20T00:44:14.021Z,26.00
2023-08-20T00:49:19.426Z,26.00
2023-08-20T00:54:22.997Z,26.00
2023-08-20T00:59:26.265Z,25.90
2023-08-20T01:04:31.836Z,25.80
2023-08-20T01:09:45.579Z,25.80
2023-08-20T01:14:48.713Z,25.70
2023-08-20T01:19:53.318Z,25.70
2023-08-20T01:25:06.327Z,25.60
2023-08-20T01:30:12.050Z,25.50
2023-08-20T01:35:16.022Z,25.40
2023-08-20T01:40:19.311Z,25.30
2023-08-20T01:45:23.857Z,25.30
2023-08-20T01:50:27.032Z,25.30
2023-08-20T01:55:32.367Z,25.40
2023-08-20T02:00:37.465Z,25.40
2023-08-20T02:05:40.625Z,25.40
2023-08-20T02:10:43.997Z,25.40
2023-08-20T02:15:48.472Z,25.40
2023-08-20T02:20:51.575Z,25.40
2023-08-20T02:25:55.374Z,25.40
2023-08-20T02:31:01.322Z,25.40
2023-08-20T02:36:05.121Z,25.40
2023-08-20T02:41:08.417Z,25.40
2023-08-20T02:46:13.202Z,25.40
2023-08-20T02:51:16.394Z,25.30
2023-08-20T02:56:19.593Z,25.30
2023-08-20T03:01:26.676Z,25.20
2023-08-20T03:06:29.832Z,25.00
2023-08-20T03:11:32.941Z,24.80
2023-08-20T03:16:37.439Z,24.60
2023-08-20T03:21:40.545Z,24.60
2023-08-20T03:26:43.646Z,24.50
2023-08-20T03:31:48.180Z,24.50
2023-08-20T03:36:51.314Z,24.50
2023-08-20T03:41:55.343Z,24.40
2023-08-20T03:47:00.031Z,24.30
2023-08-20T03:52:03.755Z,24.20
2023-08-20T03:57:07.019Z,24.20
2023-08-20T04:02:11.503Z,24.30
2023-08-20T04:07:14.617Z,24.30
2023-08-20T04:12:17.775Z,24.20
2023-08-20T04:17:22.297Z,24.30
2023-08-20T04:22:26.290Z,24.30
2023-08-20T04:27:29.533Z,24.30
2023-08-20T04:32:34.186Z,24.30
2023-08-20T04:37:37.716Z,24.20
2023-08-20T04:42:41.115Z,24.10
2023-08-20T04:47:45.708Z,24.00
2023-08-20T04:52:48.864Z,23.90
2023-08-20T04:57:52.051Z,23.80
2023-08-20T05:02:57.249Z,23.70
2023-08-20T05:08:00.472Z,23.70
2023-08-20T05:13:03.776Z,23.80
2023-08-20T05:18:08.843Z,23.80
2023-08-20T05:23:12.054Z,23.80
2023-08-20T05:28:15.166Z,23.80
2023-08-20T05:33:20.095Z,23.80
2023-08-20T05:38:23.230Z,23.90
2023-08-20T05:43:26.348Z,23.90
2023-08-20T05:48:30.938Z,24.00
2023-08-20T05:53:34.051Z,24.00
2023-08-20T05:58:37.166Z,24.00
2023-08-20T06:03:41.710Z,24.00
2023-08-20T06:08:52.332Z,24.00
2023-08-20T06:14:06.607Z,24.10
2023-08-20T06:19:11.703Z,24.20
2023-08-20T06:24:14.901Z,24.30
2023-08-20T06:29:18.112Z,24.30
2023-08-20T06:34:22.692Z,24.40
2023-08-20T06:39:25.894Z,24.50
2023-08-20T06:44:29.163Z,24.60
2023-08-20T06:49:33.684Z,24.80
2023-08-20T06:54:36.834Z,24.90
2023-08-20T06:59:40.083Z,25.10
2023-08-20T07:04:44.724Z,25.20
2023-08-20T07:09:47.908Z,25.30
2023-08-20T07:14:51.138Z,25.50
2023-08-20T07:19:55.724Z,25.60
2023-08-20T07:24:58.933Z,25.80
2023-08-20T07:30:02.229Z,25.90
2023-08-20T07:35:11.358Z,26.10
2023-08-20T07:40:16.605Z,26.40
2023-08-20T07:45:20.119Z,26.50
2023-08-20T07:50:24.858Z,26.70
2023-08-20T07:55:28.051Z,26.90
2023-08-20T08:00:31.307Z,27.10
2023-08-20T08:05:35.846Z,27.40
2023-08-20T08:10:39.208Z,27.80
2023-08-20T08:15:42.595Z,28.10
2023-08-20T08:20:47.255Z,28.40
2023-08-20T08:25:50.440Z,28.70
2023-08-20T08:30:53.774Z,29.10
2023-08-20T08:35:58.319Z,29.40
2023-08-20T08:41:02.921Z,29.70
2023-08-20T08:46:09.759Z,29.90
2023-08-20T08:51:14.964Z,30.20
2023-08-20T08:56:19.069Z,30.50
2023-08-20T09:01:22.444Z,30.80
2023-08-20T09:06:26.966Z,31.10
2023-08-20T09:11:37.171Z,31.30
2023-08-20T09:16:40.296Z,31.50
2023-08-20T09:21:49.892Z,31.80
2023-08-20T09:26:59.257Z,32.00
2023-08-20T09:32:04.581Z,32.20
2023-08-20T09:37:12.278Z,32.40
2023-08-20T09:42:16.612Z,32.60
2023-08-20T09:47:20.785Z,32.80
2023-08-20T09:52:33.405Z,33.00
2023-08-20T09:57:38.774Z,33.20
2023-08-20T10:02:43.286Z,33.40
2023-08-20T10:07:48.328Z,33.50
2023-08-20T10:12:51.718Z,33.60
2023-08-20T10:17:55.050Z,33.80
2023-08-20T10:23:04.502Z,33.90
2023-08-20T10:28:16.351Z,34.10
2023-08-20T10:33:20.463Z,34.20
2023-08-20T10:38:25.264Z,34.30
2023-08-20T10:43:33.059Z,34.40
2023-08-20T10:48:37.538Z,34.60
2023-08-20T10:53:44.187Z,34.70
2023-08-20T10:58:48.734Z,34.70
2023-08-20T11:03:53.367Z,34.80
2023-08-20T11:08:58.083Z,34.80
2023-08-20T11:14:08.438Z,34.80
2023-08-20T11:19:12.027Z,34.90
2023-08-20T11:24:16.619Z,35.00
2023-08-20T11:29:21.938Z,35.00
2023-08-20T11:34:25.441Z,35.10
2023-08-20T11:39:31.718Z,35.10
2023-08-20T11:44:45.023Z,35.20
2023-08-20T11:49:48.230Z,35.20
2023-08-20T11:54:52.752Z,35.20
2023-08-20T11:59:55.883Z,35.20
2023-08-20T12:04:59.622Z,35.20
2023-08-20T12:10:22.545Z,35.20
2023-08-20T12:15:27.257Z,35.30
2023-08-20T12:20:32.507Z,35.30
2023-08-20T12:25:37.931Z,35.30
2023-08-20T12:30:41.711Z,35.40
2023-08-20T12:35:44.909Z,35.40
2023-08-20T12:40:49.523Z,35.40
2023-08-20T12:45:52.801Z,35.40
2023-08-20T12:50:55.957Z,35.50
2023-08-20T12:56:00.568Z,35.50
2023-08-20T13:01:04.193Z,35.50
2023-08-20T13:06:08.215Z,35.50
2023-08-20T13:11:18.967Z,35.60
2023-08-20T13:16:22.589Z,35.60
2023-08-20T13:21:25.721Z,35.60
2023-08-20T13:26:30.217Z,35.60
2023-08-20T13:31:33.368Z,35.70
2023-08-20T13:36:39.258Z,35.70
2023-08-20T13:41:44.277Z,35.70
2023-08-20T13:46:47.426Z,35.80
2023-08-20T13:51:53.095Z,35.80
2023-08-20T13:56:57.660Z,35.80
2023-08-20T14:02:00.905Z,35.80
2023-08-20T14:07:04.410Z,35.90
2023-08-20T14:12:09.561Z,35.90
2023-08-20T14:17:12.672Z,35.80
2023-08-20T14:22:15.773Z,35.70
2023-08-20T14:27:20.491Z,35.70
2023-08-20T14:32:23.662Z,35.70
2023-08-20T14:37:27.415Z,35.70
2023-08-20T14:42:31.973Z,35.70
2023-08-20T14:47:35.095Z,35.70
2023-08-20T14:52:38.453Z,35.70
2023-08-20T14:57:51.779Z,35.70
2023-08-20T15:02:55.781Z,35.80
2023-08-20T15:07:59.106Z,35.70
2023-08-20T15:13:04.399Z,35.80
2023-08-20T15:18:08.000Z,35.80
2023-08-20T15:23:11.169Z,35.80
2023-08-20T15:28:16.228Z,35.80
2023-08-20T15:33:19.549Z,35.80
2023-08-20T15:38:22.850Z,35.70
2023-08-20T15:43:27.538Z,35.70
2023-08-20T15:48:30.751Z,35.70
2023-08-20T15:53:33.960Z,35.70
2023-08-20T15:58:39.659Z,35.70
2023-08-20T16:03:43.452Z,35.70
2023-08-20T16:08:46.681Z,35.70
2023-08-20T16:13:51.255Z,35.70
2023-08-20T16:18:54.779Z,35.60
2023-08-20T16:23:57.953Z,35.60
2023-08-20T16:29:02.481Z,35.60
2023-08-20T16:34:05.753Z,35.60
2023-08-20T16:39:09.097Z,35.60
2023-08-20T16:44:15.815Z,35.50
2023-08-20T16:49:18.952Z,35.40
2023-08-20T16:54:22.305Z,35.30
2023-08-20T16:59:26.825Z,35.30
2023-08-20T17:04:30.246Z,35.20
2023-08-20T17:09:33.448Z,35.20
2023-08-20T17:14:38.289Z,35.20
2023-08-20T17:19:41.913Z,35.20
2023-08-20T17:24:45.032Z,35.20
2023-08-20T17:29:50.441Z,35.20
2023-08-20T17:34:53.597Z,35.10
2023-08-20T17:39:56.755Z,35.10
2023-08-20T17:45:01.543Z,35.10
2023-08-20T17:50:05.684Z,34.90
2023-08-20T17:55:09.797Z,34.80
2023-08-20T18:00:15.321Z,34.70
2023-08-20T18:05:18.790Z,34.60
2023-08-20T18:10:22.139Z,34.50
2023-08-20T18:15:26.620Z,34.40
2023-08-20T18:20:29.938Z,34.30
2023-08-20T18:25:33.134Z,34.10
2023-08-20T18:30:38.301Z,33.80
2023-08-20T18:35:41.464Z,33.60
2023-08-20T18:40:44.724Z,33.40
2023-08-20T18:45:49.343Z,33.20
2023-08-20T18:50:52.763Z,33.00
2023-08-20T18:55:56.110Z,32.90
2023-08-20T19:01:00.735Z,32.70
2023-08-20T19:06:04.225Z,32.50
2023-08-20T19:11:07.527Z,32.30
2023-08-20T19:16:12.115Z,32.10
2023-08-20T19:21:15.300Z,31.90
2023-08-20T19:26:18.666Z,31.80
2023-08-20T19:31:23.344Z,31.50
2023-08-20T19:36:26.988Z,31.20
2023-08-20T19:41:30.729Z,30.90
2023-08-20T19:46:35.672Z,30.70
2023-08-20T19:51:40.082Z,30.50
2023-08-20T19:56:43.332Z,30.30
2023-08-20T20:01:52.713Z,30.00
2023-08-20T20:07:03.502Z,29.80
2023-08-20T20:12:13.144Z,29.60
2023-08-20T20:17:17.715Z,29.40
2023-08-20T20:22:21.831Z,29.40
2023-08-20T20:27:25.237Z,29.30
2023-08-20T20:32:30.214Z,29.30
2023-08-20T20:37:33.530Z,29.40
2023-08-20T20:42:37.285Z,29.30
2023-08-20T20:47:42.656Z,29.30
2023-08-20T20:52:46.027Z,29.30
2023-08-20T20:57:49.351Z,29.20
2023-08-20T21:02:54.002Z,29.00
2023-08-20T21:07:57.226Z,28.90
2023-08-20T21:13:00.418Z,28.80
2023-08-20T21:18:05.381Z,28.60
2023-08-20T21:23:08.763Z,28.40
2023-08-20T21:28:11.935Z,28.20
2023-08-20T21:33:16.519Z,28.00
2023-08-20T21:38:20.056Z,27.80
2023-08-20T21:43:23.290Z,27.50
2023-08-20T21:48:28.166Z,27.20
2023-08-20T21:53:31.330Z,27.00
2023-08-20T21:58:34.470Z,26.90
2023-08-20T22:03:39.139Z,26.90
2023-08-20T22:08:42.368Z,26.90
2023-08-20T22:13:45.558Z,27.00
2023-08-20T22:18:50.640Z,27.10
2023-08-20T22:23:54.287Z,27.10
2023-08-20T22:28:57.867Z,27.20
2023-08-20T22:34:02.345Z,27.20
2023-08-20T22:39:07.029Z,27.20
2023-08-20T22:44:10.423Z,27.20
2023-08-20T22:49:14.909Z,27.20
2023-08-20T22:54:18.081Z,27.20
2023-08-20T22:59:21.248Z,27.20
2023-08-20T23:04:25.848Z,27.10
2023-08-20T23:09:28.988Z,27.10
2023-08-20T23:14:32.120Z,27.10
2023-08-20T23:19:37.123Z,27.10
2023-08-20T23:24:40.318Z,27.10
2023-08-20T23:29:43.538Z,27.10
2023-08-20T23:34:48.020Z,27.00
2023-08-20T23:39:51.208Z,27.00
2023-08-20T23:44:54.798Z,27.00
2023-08-20T23:50:00.524Z,27.00
2023-08-20T23:55:04.598Z,26.90
